Js Ineos Intrepid — OWKN2 — position and weather

sailwx.info

Track history (hours):
 
Tides and Currents Weather Stations Pressure Air Temp Water Temp Dewpoint Dewpoint Depression Visibility Wind Speed Wind Dir Waves Ship Positions

Js Ineos Intrepid

Last reported at 2018-Jun-10 07:37 UTC. Time now 2018-Jun-19 08:25 UTC.
Position N 49°40' W 004°37'.
Warning: this ship's position is 9 days out of date.

Length 180 m; draft 7.4 m.

Type: Ship (hazmat cat A). MMSI: 219676000.

Date/timePositionNaut miles runAvg speedWind from/ knotsBaromVisibWave heightAir tempDewpointWater temp
2018-Jun-10 07:37N 49°40' W 004°37'212.4
2018-Jun-10 07:29N 49°41' W 004°34'1612.2
2018-Jun-10 06:13N 49°45' W 004°11'1411.5
2018-Jun-10 04:58N 49°49' W 003°50'511.1
2018-Jun-10 04:30N 49°50' W 003°42'610.9
2018-Jun-10 03:59N 49°52' W 003°34'510.7
2018-Jun-10 03:30N 49°54' W 003°27'510.7
2018-Jun-10 03:00N 49°56' W 003°19'510.7
2018-Jun-10 02:30N 49°58' W 003°11'510.9
2018-Jun-10 02:00N 49°60' W 003°03'611.2
2018-Jun-10 01:30N 50°00' W 002°55'611.5
2018-Jun-10 01:00N 50°00' W 002°46'611.9
2018-Jun-10 00:30N 50°02' W 002°37'612.4
2018-Jun-10 00:00N 50°04' W 002°27'813.1
2018-Jun-09 23:23N 50°06' W 002°15'513.5
2018-Jun-09 23:01N 50°07' W 002°07'713.9
2018-Jun-09 22:30N 50°09' W 001°57'714.0
2018-Jun-09 22:01N 50°11' W 001°46'713.8
2018-Jun-09 21:29N 50°12' W 001°35'613.5
2018-Jun-09 21:01N 50°14' W 001°26'712.9
2018-Jun-09 20:30N 50°16' W 001°16'612.5
2018-Jun-09 20:00N 50°17' W 001°07'611.9
2018-Jun-09 19:31N 50°19' W 000°58'611.2
2018-Jun-09 19:00N 50°20' W 000°49'510.6
2018-Jun-09 18:30N 50°21' W 000°41'510.2
2018-Jun-09 18:01N 50°23' W 000°33'510.0
2018-Jun-09 17:31N 50°24' W 000°26'510.0
2018-Jun-09 16:59N 50°25' W 000°18'510.1
2018-Jun-09 16:30N 50°27' W 000°11'510.2
2018-Jun-09 16:01N 50°28' W 000°03'1110.8
2018-Jun-09 15:01N 50°31' E 000°14'611.5
2018-Jun-09 14:31N 50°32' E 000°22'612.1
2018-Jun-09 14:01N 50°34' E 000°31'612.3
2018-Jun-09 13:31N 50°36' E 000°41'612.7
2018-Jun-09 13:01N 50°40' E 000°49'612.8
2018-Jun-09 12:31N 50°44' E 000°57'612.7
2018-Jun-09 12:00N 50°47' E 001°04'612.4
2018-Jun-09 11:31N 50°51' E 001°12'612.3
2018-Jun-09 11:00N 50°56' E 001°19'612.0
2018-Jun-09 10:30N 50°60' E 001°26'611.6
2018-Jun-09 10:01N 51°04' E 001°32'510.5
2018-Jun-09 09:30N 51°08' E 001°38'510.3
2018-Jun-09 09:01N 51°12' E 001°44'510.3
2018-Jun-09 08:30N 51°16' E 001°48'510.7
2018-Jun-09 08:01N 51°21' E 001°52'611.3
2018-Jun-09 07:31N 51°26' E 001°55'611.7
2018-Jun-09 07:01N 51°30' E 002°02'612.0
2018-Jun-09 06:30N 51°35' E 002°08'612.4
2018-Jun-09 06:01N 51°39' E 002°15'712.8
2018-Jun-09 05:30N 51°44' E 002°22'613.0
2018-Jun-09 05:01N 51°49' E 002°29'712.9
2018-Jun-09 04:30N 51°54' E 002°35'613.2
2018-Jun-09 04:00N 52°01' E 002°36'713.3
2018-Jun-09 03:30N 52°07' E 002°37'613.1
2018-Jun-09 03:01N 52°14' E 002°38'612.8
2018-Jun-09 02:30N 52°20' E 002°38'612.6
2018-Jun-09 02:00N 52°26' E 002°37'612.0
2018-Jun-09 01:31N 52°32' E 002°37'611.3
2018-Jun-09 01:01N 52°38' E 002°38'611.5
2018-Jun-09 00:30N 52°44' E 002°38'611.2
2018-Jun-09 00:00N 52°49' E 002°39'611.0
2018-Jun-08 23:30N 52°55' E 002°39'510.7
2018-Jun-08 23:00N 53°00' E 002°39'510.5
2018-Jun-08 22:30N 53°05' E 002°39'510.5
2018-Jun-08 22:00N 53°10' E 002°41'510.8
2018-Jun-08 21:30N 53°16' E 002°44'611.3
2018-Jun-08 21:01N 53°21' E 002°47'611.7
2018-Jun-08 20:30N 53°26' E 002°51'611.9
2018-Jun-08 20:00N 53°32' E 002°54'611.5
2018-Jun-08 19:30N 53°37' E 002°51'611.8
2018-Jun-08 19:00N 53°43' E 002°47'611.7
2018-Jun-08 18:28N 53°49' E 002°43'511.9
2018-Jun-08 18:00N 53°54' E 002°39'611.8
2018-Jun-08 17:29N 53°58' E 002°31'611.9
2018-Jun-08 16:57N 54°02' E 002°23'512.0
2018-Jun-08 16:30N 54°05' E 002°16'612.1
2018-Jun-08 15:59N 54°09' E 002°08'612.3
2018-Jun-08 15:28N 54°13' E 001°60'1012.1
2018-Jun-08 14:39N 54°20' E 001°47'212.1
2018-Jun-08 14:30N 54°21' E 001°44'2112.3
2018-Jun-08 12:45N 54°35' E 001°16'312.2
2018-Jun-08 12:30N 54°37' E 001°12'2312.2
2018-Jun-08 10:35N 54°52' E 000°41'212.2
2018-Jun-08 10:27N 54°53' E 000°39'512.2
2018-Jun-08 10:00N 54°56' E 000°32'712.2
2018-Jun-08 09:27N 55°01' E 000°23'512.2
2018-Jun-08 09:00N 55°05' E 000°16'812.2
2018-Jun-08 08:23N 55°09' E 000°06'512.2
2018-Jun-08 08:01N 55°12' W 000°00'612.2
2018-Jun-08 07:30N 55°16' W 000°09'612.1
2018-Jun-08 07:00N 55°20' W 000°17'1412.0
2018-Jun-08 05:52N 55°30' W 000°35'611.9
2018-Jun-08 05:24N 55°33' W 000°43'511.8
2018-Jun-08 05:00N 55°36' W 000°49'911.8
2018-Jun-08 04:17N 55°41' W 001°00'811.5
2018-Jun-08 03:34N 55°47' W 001°11'511.5
2018-Jun-08 03:10N 55°50' W 001°17'211.5
2018-Jun-08 03:00N 55°51' W 001°20'611.5
2018-Jun-08 02:30N 55°55' W 001°28'611.7
2018-Jun-08 01:56N 55°59' W 001°37'511.6
2018-Jun-08 01:30N 56°02' W 001°44'611.2
2018-Jun-08 00:59N 56°05' W 001°53'611.5
2018-Jun-08 00:29N 56°06' W 002°03'611.6
2018-Jun-07 23:57N 56°06' W 002°14'511.8
2018-Jun-07 23:31N 56°07' W 002°23'611.8
2018-Jun-07 23:01N 56°08' W 002°34'611.3
2018-Jun-07 22:30N 56°07' W 002°44'510.5
2018-Jun-07 22:01N 56°06' W 002°53'714.1
2018-Jun-07 21:30N 56°03' W 003°05'4 7.9
2018-Jun-07 21:00N 56°03' W 003°12'714.2
2018-Jun-07 20:30N 56°00' W 003°23'713.2
2018-Jun-07 20:00N 56°02' W 003°35'4 7.2
2018-Jun-07 19:30N 56°02' W 003°41'0 0.3
2018-Jun-07 19:00N 56°02' W 003°41'0 0.0
2018-Jun-06 08:00N 56°02' W 003°41'0 0.1
2018-Jun-06 07:30N 56°02' W 003°41'0 0.5
2018-Jun-06 07:00N 56°02' W 003°41'0 0.5
2018-Jun-06 06:30N 56°02' W 003°41'5 5.4
2018-Jun-06 05:37N 56°02' W 003°32'311.1
2018-Jun-06 05:23N 56°01' W 003°28'4 9.3
2018-Jun-06 05:00N 56°01' W 003°21'510.3
2018-Jun-06 04:30N 56°02' W 003°13'611.7
2018-Jun-06 04:01N 56°06' W 003°04'3 5.3
2018-Jun-06 03:31N 56°08' W 003°02'0 0.1
2018-Jun-06 02:59N 56°08' W 003°02'0 0.0
2018-Jun-06 02:26N 56°08' W 003°02'0 0.0
2018-Jun-06 01:59N 56°08' W 003°02'0 0.0
2018-Jun-06 01:29N 56°08' W 003°02'0 0.0
2018-Jun-06 00:56N 56°08' W 003°02'0 0.0
2018-Jun-06 00:29N 56°08' W 003°02'0 0.0
2018-Jun-05 23:59N 56°08' W 003°02'0 0.0
2018-Jun-05 23:29N 56°08' W 003°02'0 0.1
2018-Jun-05 22:59N 56°08' W 003°02'0 0.0
2018-Jun-05 22:29N 56°08' W 003°02'0 0.0
2018-Jun-05 21:59N 56°08' W 003°02'0 0.0
2018-Jun-05 21:29N 56°08' W 003°02'0 0.1
2018-Jun-05 20:59N 56°08' W 003°02'0 0.0
2018-Jun-05 20:29N 56°08' W 003°02'0 0.0
2018-Jun-05 19:59N 56°08' W 003°02'0 0.0
2018-Jun-05 19:29N 56°08' W 003°02'0 0.0
2018-Jun-05 18:59N 56°08' W 003°02'0 0.0
2018-Jun-05 18:29N 56°08' W 003°02'0 0.0
2018-Jun-05 17:59N 56°08' W 003°02'0 0.0
2018-Jun-05 17:29N 56°08' W 003°02'0 0.0
2018-Jun-05 16:59N 56°08' W 003°02'0 0.0
2018-Jun-05 16:29N 56°08' W 003°02'0 0.0
2018-Jun-05 15:59N 56°08' W 003°02'0 0.0
2018-Jun-05 15:29N 56°08' W 003°02'0 0.0
2018-Jun-05 14:59N 56°08' W 003°02'0 0.0
2018-Jun-05 14:29N 56°08' W 003°02'0 0.0
2018-Jun-05 13:59N 56°08' W 003°02'0 0.0
2018-Jun-05 13:29N 56°08' W 003°02'0 0.0
2018-Jun-05 12:59N 56°08' W 003°02'0 0.0
2018-Jun-05 12:29N 56°08' W 003°02'0 0.0
2018-Jun-05 11:59N 56°08' W 003°02'0 0.1
2018-Jun-05 11:29N 56°08' W 003°02'0 0.2
2018-Jun-05 10:59N 56°08' W 003°02'0 0.1
2018-Jun-05 10:29N 56°08' W 003°02'0 0.0
2018-Jun-05 09:59N 56°08' W 003°02'0 0.0
2018-Jun-05 09:29N 56°08' W 003°02'0 0.1
2018-Jun-05 08:59N 56°08' W 003°02'0 0.1
2018-Jun-05 08:29N 56°08' W 003°02'0 0.1
2018-Jun-05 07:59N 56°08' W 003°02'0 0.1
2018-Jun-05 07:29N 56°08' W 003°02'0 0.0
2018-Jun-05 06:59N 56°08' W 003°02'0 0.0
2018-Jun-05 06:29N 56°08' W 003°02'0 0.0
2018-Jun-05 05:59N 56°08' W 003°02'0 0.0
2018-Jun-05 05:29N 56°08' W 003°02'0 0.0
2018-Jun-05 04:59N 56°08' W 003°02'0 0.0
2018-Jun-05 04:29N 56°08' W 003°02'0 0.0
2018-Jun-05 03:59N 56°08' W 003°02'0 0.0
2018-Jun-05 03:29N 56°08' W 003°02'0 0.0
2018-Jun-05 02:59N 56°08' W 003°02'0 0.0
2018-Jun-05 02:29N 56°08' W 003°02'0 0.0
2018-Jun-05 01:59N 56°08' W 003°02'0 0.0
2018-Jun-05 01:29N 56°08' W 003°02'0 0.1
2018-Jun-05 00:59N 56°08' W 003°02'0 0.0
2018-Jun-05 00:29N 56°08' W 003°02'0 0.0
2018-Jun-04 23:59N 56°08' W 003°02'0 0.0
2018-Jun-04 23:29N 56°08' W 003°02'0 0.1
2018-Jun-04 22:59N 56°08' W 003°02'0 0.0
2018-Jun-04 22:29N 56°08' W 003°02'0 0.0
2018-Jun-04 21:59N 56°08' W 003°02'0 0.2
2018-Jun-04 21:29N 56°08' W 003°02'0 0.1
2018-Jun-04 20:59N 56°08' W 003°02'0 0.0
2018-Jun-04 20:29N 56°08' W 003°02'0 0.1
2018-Jun-04 19:59N 56°08' W 003°02'0 0.1
2018-Jun-04 19:26N 56°08' W 003°02'0 0.1
2018-Jun-04 18:59N 56°08' W 003°02'0 0.0
2018-Jun-04 18:29N 56°08' W 003°02'0 0.1
2018-Jun-04 17:59N 56°08' W 003°02'0 0.0
2018-Jun-04 17:29N 56°08' W 003°02'0 0.0
2018-Jun-04 16:59N 56°08' W 003°02'0 0.0
2018-Jun-04 16:29N 56°08' W 003°02'0 0.0
2018-Jun-04 15:59N 56°08' W 003°02'0 0.0
2018-Jun-04 15:29N 56°08' W 003°02'0 0.0
2018-Jun-04 14:59N 56°08' W 003°02'0 0.0
2018-Jun-04 14:29N 56°08' W 003°02'0 0.0
2018-Jun-04 13:59N 56°08' W 003°02'0 0.0
2018-Jun-04 13:29N 56°08' W 003°02'0 0.0
2018-Jun-04 12:59N 56°08' W 003°02'0 0.0
2018-Jun-04 12:29N 56°08' W 003°02'0 0.0
2018-Jun-04 11:59N 56°08' W 003°02'0 0.0
2018-Jun-04 11:29N 56°08' W 003°02'0 0.0
2018-Jun-04 10:59N 56°08' W 003°02'0 0.0
2018-Jun-04 10:29N 56°08' W 003°02'0 0.2
2018-Jun-04 09:59N 56°08' W 003°02'0 0.3
2018-Jun-04 09:29N 56°08' W 003°02'0 0.0
2018-Jun-04 08:59N 56°08' W 003°02'0 0.1
2018-Jun-04 08:29N 56°08' W 003°02'0 0.1
2018-Jun-04 07:59N 56°08' W 003°02'0 0.1
2018-Jun-04 07:29N 56°08' W 003°02'0 0.2
2018-Jun-04 06:59N 56°08' W 003°02'0 0.1
2018-Jun-04 06:29N 56°08' W 003°02'0 0.1
2018-Jun-04 05:53N 56°08' W 003°02'0 0.0
2018-Jun-04 05:29N 56°08' W 003°02'0 0.0
2018-Jun-04 04:56N 56°08' W 003°02'0 0.0
2018-Jun-04 04:29N 56°08' W 003°02'0 0.0
2018-Jun-04 03:59N 56°08' W 003°02'0 0.0
2018-Jun-04 03:29N 56°08' W 003°02'0 0.0
2018-Jun-04 02:59N 56°08' W 003°02'0 0.0
2018-Jun-04 02:29N 56°08' W 003°02'0 0.0
2018-Jun-04 01:59N 56°08' W 003°02'0 0.0
2018-Jun-04 01:29N 56°08' W 003°02'0 0.0
2018-Jun-04 00:59N 56°08' W 003°02'0 0.0
2018-Jun-04 00:29N 56°08' W 003°02'0 0.0
2018-Jun-03 23:59N 56°08' W 003°02'0 0.0
2018-Jun-03 23:29N 56°08' W 003°02'0 0.2
2018-Jun-03 22:59N 56°08' W 003°02'0 0.1
2018-Jun-03 22:29N 56°08' W 003°02'0 0.1
2018-Jun-03 21:59N 56°08' W 003°02'0 0.1
2018-Jun-03 21:29N 56°08' W 003°02'0 0.1
2018-Jun-03 20:59N 56°08' W 003°02'0 0.1
2018-Jun-03 20:29N 56°08' W 003°02'0 0.1
2018-Jun-03 19:59N 56°08' W 003°02'0 0.0
2018-Jun-03 19:29N 56°08' W 003°02'0 0.1
2018-Jun-03 18:59N 56°08' W 003°02'0 0.1
2018-Jun-03 18:29N 56°08' W 003°02'0 0.1
2018-Jun-03 17:59N 56°08' W 003°02'0 0.0
2018-Jun-03 17:29N 56°08' W 003°02'0 0.0
2018-Jun-03 16:59N 56°08' W 003°02'0 0.0
2018-Jun-03 16:29N 56°08' W 003°02'0 0.0
2018-Jun-03 15:59N 56°08' W 003°02'0 0.0
2018-Jun-03 15:29N 56°08' W 003°02'0 0.0
2018-Jun-03 14:59N 56°08' W 003°02'0 0.0
2018-Jun-03 14:29N 56°08' W 003°02'0 0.0
2018-Jun-03 13:56N 56°08' W 003°02'0 0.0
2018-Jun-03 13:29N 56°08' W 003°02'0 0.0
2018-Jun-03 12:59N 56°08' W 003°02'0 0.0
2018-Jun-03 12:29N 56°08' W 003°02'0 0.1
2018-Jun-03 11:59N 56°08' W 003°02'0 0.1
2018-Jun-03 11:29N 56°08' W 003°02'0 0.1
2018-Jun-03 10:59N 56°08' W 003°02'0 0.1
2018-Jun-03 10:29N 56°08' W 003°02'0 0.1
2018-Jun-03 09:59N 56°08' W 003°02'0 0.0
2018-Jun-03 09:29N 56°08' W 003°02'0 0.0
2018-Jun-03 08:59N 56°08' W 003°02'0 0.0
2018-Jun-03 08:29N 56°08' W 003°02'0 0.0
2018-Jun-03 07:59N 56°08' W 003°02'0 0.0
2018-Jun-03 07:29N 56°08' W 003°02'0 0.0
2018-Jun-03 06:59N 56°08' W 003°02'0 0.1
2018-Jun-03 06:29N 56°08' W 003°02'0 0.2
2018-Jun-03 05:59N 56°08' W 003°02'0 0.1
2018-Jun-03 05:29N 56°08' W 003°02'0 0.0
2018-Jun-03 04:59N 56°08' W 003°02'0 0.0
2018-Jun-03 04:29N 56°08' W 003°02'0 0.1
2018-Jun-03 03:59N 56°08' W 003°02'0 0.0
2018-Jun-03 03:29N 56°08' W 003°02'0 0.0
2018-Jun-03 02:59N 56°08' W 003°02'0 0.0
2018-Jun-03 02:29N 56°08' W 003°02'0 0.0
2018-Jun-03 01:59N 56°08' W 003°02'0 0.0
2018-Jun-03 01:29N 56°08' W 003°02'0 0.0
2018-Jun-03 00:59N 56°08' W 003°02'0 0.0
2018-Jun-03 00:29N 56°08' W 003°02'0 0.0
2018-Jun-02 23:59N 56°08' W 003°02'0 0.1
2018-Jun-02 23:29N 56°08' W 003°02'0 0.1
2018-Jun-02 22:59N 56°08' W 003°02'0 0.0
2018-Jun-02 22:29N 56°08' W 003°02'0 0.1
2018-Jun-02 21:59N 56°08' W 003°02'0 0.1
2018-Jun-02 21:29N 56°08' W 003°02'0 0.0
2018-Jun-02 20:59N 56°08' W 003°02'0 0.0
2018-Jun-02 20:29N 56°08' W 003°02'0 0.0
2018-Jun-02 19:59N 56°08' W 003°02'0 0.0
2018-Jun-02 19:29N 56°08' W 003°02'0 0.1
2018-Jun-02 18:59N 56°08' W 003°02'0 0.2
2018-Jun-02 18:29N 56°08' W 003°02'0 0.2
2018-Jun-02 17:59N 56°08' W 003°02'0 0.0
2018-Jun-02 17:29N 56°08' W 003°02'0 0.0
2018-Jun-02 16:59N 56°08' W 003°02'0 0.0
2018-Jun-02 16:29N 56°08' W 003°02'0 0.0
2018-Jun-02 15:59N 56°08' W 003°02'0 0.0
2018-Jun-02 15:29N 56°08' W 003°02'0 0.0
2018-Jun-02 14:59N 56°08' W 003°02'0 0.0
2018-Jun-02 14:29N 56°08' W 003°02'0 0.0
2018-Jun-02 13:59N 56°08' W 003°02'0 0.0
2018-Jun-02 13:29N 56°08' W 003°02'0 0.0
2018-Jun-02 12:59N 56°08' W 003°02'0 0.0
2018-Jun-02 12:29N 56°08' W 003°02'0 0.0
2018-Jun-02 11:59N 56°08' W 003°02'0 0.1
2018-Jun-02 11:29N 56°08' W 003°02'0 0.1
2018-Jun-02 10:59N 56°08' W 003°02'0 0.0
2018-Jun-02 10:29N 56°08' W 003°02'0 0.0
2018-Jun-02 09:59N 56°08' W 003°02'0 0.0
2018-Jun-02 09:29N 56°08' W 003°02'0 0.0
2018-Jun-02 08:59N 56°08' W 003°02'0 0.0
2018-Jun-02 08:29N 56°08' W 003°02'0 0.0
2018-Jun-02 07:59N 56°08' W 003°02'0 0.0
2018-Jun-02 07:29N 56°08' W 003°02'0 0.0
2018-Jun-02 06:59N 56°08' W 003°02'0 0.1
2018-Jun-02 06:29N 56°08' W 003°02'0 0.1
2018-Jun-02 05:59N 56°08' W 003°02'0 0.2
2018-Jun-02 05:29N 56°08' W 003°02'0 0.1
2018-Jun-02 04:59N 56°08' W 003°02'0 0.0
2018-Jun-02 04:29N 56°08' W 003°02'0 0.0
2018-Jun-02 03:59N 56°08' W 003°02'0 0.0
2018-Jun-02 03:29N 56°08' W 003°02'0 0.0
2018-Jun-02 02:59N 56°08' W 003°02'0 0.0
2018-Jun-02 02:29N 56°08' W 003°02'0 0.0
2018-Jun-02 01:59N 56°08' W 003°02'0 0.0
2018-Jun-02 01:29N 56°08' W 003°02'0 0.0
2018-Jun-02 00:59N 56°08' W 003°02'0 0.0
2018-Jun-02 00:29N 56°08' W 003°02'0 0.0
2018-Jun-01 23:59N 56°08' W 003°02'0 0.1
2018-Jun-01 23:29N 56°08' W 003°02'0 0.1
2018-Jun-01 22:59N 56°08' W 003°02'0 0.1
2018-Jun-01 22:29N 56°08' W 003°02'0 0.0
2018-Jun-01 21:59N 56°08' W 003°02'0 0.1
2018-Jun-01 21:29N 56°08' W 003°02'0 0.0
2018-Jun-01 20:59N 56°08' W 003°02'0 0.0
2018-Jun-01 20:29N 56°08' W 003°02'0 0.0
2018-Jun-01 19:59N 56°08' W 003°02'0 0.0
2018-Jun-01 19:29N 56°08' W 003°02'0 0.0
2018-Jun-01 18:59N 56°08' W 003°02'0 0.0
2018-Jun-01 18:29N 56°08' W 003°02'0 0.1
2018-Jun-01 17:59N 56°08' W 003°02'0 0.1
2018-Jun-01 17:29N 56°08' W 003°02'0 0.2
2018-Jun-01 16:59N 56°08' W 003°02'0 0.1
2018-Jun-01 16:29N 56°08' W 003°02'0 0.0
2018-Jun-01 15:59N 56°08' W 003°02'0 0.0
2018-Jun-01 15:29N 56°08' W 003°02'0 0.0
2018-Jun-01 14:59N 56°08' W 003°02'0 0.0
2018-Jun-01 14:29N 56°08' W 003°02'0 0.1
2018-Jun-01 13:59N 56°08' W 003°02'0 0.0
2018-Jun-01 13:29N 56°08' W 003°02'0 0.0
2018-Jun-01 12:59N 56°08' W 003°02'0 0.0
2018-Jun-01 12:26N 56°08' W 003°02'0 0.0
2018-Jun-01 11:59N 56°08' W 003°02'0 0.0
2018-Jun-01 11:29N 56°08' W 003°02'0 0.1
2018-Jun-01 10:59N 56°08' W 003°02'0 0.2
2018-Jun-01 10:29N 56°08' W 003°02'0 0.1
2018-Jun-01 09:59N 56°08' W 003°02'0 0.0
2018-Jun-01 09:29N 56°08' W 003°02'0 0.0
2018-Jun-01 08:59N 56°08' W 003°02'0 0.0
2018-Jun-01 08:29N 56°08' W 003°02'0 0.0
2018-Jun-01 07:59N 56°08' W 003°02'0 0.0
2018-Jun-01 07:29N 56°08' W 003°02'0 0.0
2018-Jun-01 06:59N 56°08' W 003°02'0 0.0
2018-Jun-01 06:29N 56°08' W 003°02'0 0.0
2018-Jun-01 05:59N 56°08' W 003°02'0 0.1
2018-Jun-01 05:29N 56°08' W 003°02'0 0.1
2018-Jun-01 04:59N 56°08' W 003°02'0 0.1
2018-Jun-01 04:29N 56°08' W 003°02'0 0.1
2018-Jun-01 03:59N 56°08' W 003°02'0 0.0
2018-Jun-01 03:29N 56°08' W 003°02'0 0.0
2018-Jun-01 02:59N 56°08' W 003°02'0 0.0
2018-Jun-01 02:29N 56°08' W 003°02'0 0.0
2018-Jun-01 01:59N 56°08' W 003°02'0 0.0
2018-Jun-01 01:29N 56°08' W 003°02'0 0.0
2018-Jun-01 00:59N 56°08' W 003°02'0 0.0
2018-Jun-01 00:29N 56°08' W 003°02'0 0.0
2018-May-31 23:59N 56°08' W 003°02'0 0.0
2018-May-31 23:29N 56°08' W 003°02'0 0.0
2018-May-31 22:59N 56°08' W 003°02'0 0.0
2018-May-31 22:29N 56°08' W 003°02'0 0.1
2018-May-31 21:59N 56°08' W 003°02'0 0.2
2018-May-31 21:29N 56°08' W 003°02'0 0.1
2018-May-31 20:59N 56°08' W 003°02'0 0.0
2018-May-31 20:29N 56°08' W 003°02'0 0.0
2018-May-31 19:59N 56°08' W 003°02'0 0.0
2018-May-31 19:29N 56°08' W 003°02'0 0.0
2018-May-31 18:59N 56°08' W 003°02'0 0.3
2018-May-31 18:30N 56°08' W 003°02'2 4.7
2018-May-31 18:00N 56°08' W 002°58'611.5
2018-May-31 17:30N 56°08' W 002°47'612.4
2018-May-31 17:01N 56°08' W 002°36'611.6
2018-May-31 16:30N 56°10' W 002°27'612.6
2018-May-31 16:00N 56°15' W 002°20'1212.9
2018-May-31 15:04N 56°25' W 002°06'113.2
2018-May-31 14:59N 56°26' W 002°05'3314.9
2018-May-31 12:45N 56°55' W 001°36'514.9
2018-May-31 12:23N 57°00' W 001°32'814.6
2018-May-31 11:51N 57°07' W 001°26'614.8
2018-May-31 11:28N 57°12' W 001°23'  
Track history (hours):
 
Tides and Currents Weather Stations Pressure Air Temp Water Temp Dewpoint Dewpoint Depression Visibility Wind Speed Wind Dir Waves Ship Positions

Js Ineos Intrepid

Last reported at 2018-Jun-10 07:37 UTC. Time now 2018-Jun-19 08:25 UTC.
Position N 49°40' W 004°37'.
Warning: this ship's position is 9 days out of date.

Length 180 m; draft 7.4 m.

Type: Ship (hazmat cat A). MMSI: 219676000.

Date/timePositionNaut miles runAvg speedWind from/ knotsBaromVisibWave heightAir tempDewpointWater temp
2018-Jun-10 07:37N 49°40' W 004°37'212.4
2018-Jun-10 07:29N 49°41' W 004°34'1612.2
2018-Jun-10 06:13N 49°45' W 004°11'1411.5
2018-Jun-10 04:58N 49°49' W 003°50'511.1
2018-Jun-10 04:30N 49°50' W 003°42'610.9
2018-Jun-10 03:59N 49°52' W 003°34'510.7
2018-Jun-10 03:30N 49°54' W 003°27'510.7
2018-Jun-10 03:00N 49°56' W 003°19'510.7
2018-Jun-10 02:30N 49°58' W 003°11'510.9
2018-Jun-10 02:00N 49°60' W 003°03'611.2
2018-Jun-10 01:30N 50°00' W 002°55'611.5
2018-Jun-10 01:00N 50°00' W 002°46'611.9
2018-Jun-10 00:30N 50°02' W 002°37'612.4
2018-Jun-10 00:00N 50°04' W 002°27'813.1
2018-Jun-09 23:23N 50°06' W 002°15'513.5
2018-Jun-09 23:01N 50°07' W 002°07'713.9
2018-Jun-09 22:30N 50°09' W 001°57'714.0
2018-Jun-09 22:01N 50°11' W 001°46'713.8
2018-Jun-09 21:29N 50°12' W 001°35'613.5
2018-Jun-09 21:01N 50°14' W 001°26'712.9
2018-Jun-09 20:30N 50°16' W 001°16'612.5
2018-Jun-09 20:00N 50°17' W 001°07'611.9
2018-Jun-09 19:31N 50°19' W 000°58'611.2
2018-Jun-09 19:00N 50°20' W 000°49'510.6
2018-Jun-09 18:30N 50°21' W 000°41'510.2
2018-Jun-09 18:01N 50°23' W 000°33'510.0
2018-Jun-09 17:31N 50°24' W 000°26'510.0
2018-Jun-09 16:59N 50°25' W 000°18'510.1
2018-Jun-09 16:30N 50°27' W 000°11'510.2
2018-Jun-09 16:01N 50°28' W 000°03'1110.8
2018-Jun-09 15:01N 50°31' E 000°14'611.5
2018-Jun-09 14:31N 50°32' E 000°22'612.1
2018-Jun-09 14:01N 50°34' E 000°31'612.3
2018-Jun-09 13:31N 50°36' E 000°41'612.7
2018-Jun-09 13:01N 50°40' E 000°49'612.8
2018-Jun-09 12:31N 50°44' E 000°57'612.7
2018-Jun-09 12:00N 50°47' E 001°04'612.4
2018-Jun-09 11:31N 50°51' E 001°12'612.3
2018-Jun-09 11:00N 50°56' E 001°19'612.0
2018-Jun-09 10:30N 50°60' E 001°26'611.6
2018-Jun-09 10:01N 51°04' E 001°32'510.5
2018-Jun-09 09:30N 51°08' E 001°38'510.3
2018-Jun-09 09:01N 51°12' E 001°44'510.3
2018-Jun-09 08:30N 51°16' E 001°48'510.7
2018-Jun-09 08:01N 51°21' E 001°52'611.3
2018-Jun-09 07:31N 51°26' E 001°55'611.7
2018-Jun-09 07:01N 51°30' E 002°02'612.0
2018-Jun-09 06:30N 51°35' E 002°08'612.4
2018-Jun-09 06:01N 51°39' E 002°15'712.8
2018-Jun-09 05:30N 51°44' E 002°22'613.0
2018-Jun-09 05:01N 51°49' E 002°29'712.9
2018-Jun-09 04:30N 51°54' E 002°35'613.2
2018-Jun-09 04:00N 52°01' E 002°36'713.3
2018-Jun-09 03:30N 52°07' E 002°37'613.1
2018-Jun-09 03:01N 52°14' E 002°38'612.8
2018-Jun-09 02:30N 52°20' E 002°38'612.6
2018-Jun-09 02:00N 52°26' E 002°37'612.0
2018-Jun-09 01:31N 52°32' E 002°37'611.3
2018-Jun-09 01:01N 52°38' E 002°38'611.5
2018-Jun-09 00:30N 52°44' E 002°38'611.2
2018-Jun-09 00:00N 52°49' E 002°39'611.0
2018-Jun-08 23:30N 52°55' E 002°39'510.7
2018-Jun-08 23:00N 53°00' E 002°39'510.5
2018-Jun-08 22:30N 53°05' E 002°39'510.5
2018-Jun-08 22:00N 53°10' E 002°41'510.8
2018-Jun-08 21:30N 53°16' E 002°44'611.3
2018-Jun-08 21:01N 53°21' E 002°47'611.7
2018-Jun-08 20:30N 53°26' E 002°51'611.9
2018-Jun-08 20:00N 53°32' E 002°54'611.5
2018-Jun-08 19:30N 53°37' E 002°51'611.8
2018-Jun-08 19:00N 53°43' E 002°47'611.7
2018-Jun-08 18:28N 53°49' E 002°43'511.9
2018-Jun-08 18:00N 53°54' E 002°39'611.8
2018-Jun-08 17:29N 53°58' E 002°31'611.9
2018-Jun-08 16:57N 54°02' E 002°23'512.0
2018-Jun-08 16:30N 54°05' E 002°16'612.1
2018-Jun-08 15:59N 54°09' E 002°08'612.3
2018-Jun-08 15:28N 54°13' E 001°60'1012.1
2018-Jun-08 14:39N 54°20' E 001°47'212.1
2018-Jun-08 14:30N 54°21' E 001°44'2112.3
2018-Jun-08 12:45N 54°35' E 001°16'312.2
2018-Jun-08 12:30N 54°37' E 001°12'2312.2
2018-Jun-08 10:35N 54°52' E 000°41'212.2
2018-Jun-08 10:27N 54°53' E 000°39'512.2
2018-Jun-08 10:00N 54°56' E 000°32'712.2
2018-Jun-08 09:27N 55°01' E 000°23'512.2
2018-Jun-08 09:00N 55°05' E 000°16'812.2
2018-Jun-08 08:23N 55°09' E 000°06'512.2
2018-Jun-08 08:01N 55°12' W 000°00'612.2
2018-Jun-08 07:30N 55°16' W 000°09'612.1
2018-Jun-08 07:00N 55°20' W 000°17'1412.0
2018-Jun-08 05:52N 55°30' W 000°35'611.9
2018-Jun-08 05:24N 55°33' W 000°43'511.8
2018-Jun-08 05:00N 55°36' W 000°49'911.8
2018-Jun-08 04:17N 55°41' W 001°00'811.5
2018-Jun-08 03:34N 55°47' W 001°11'511.5
2018-Jun-08 03:10N 55°50' W 001°17'211.5
2018-Jun-08 03:00N 55°51' W 001°20'611.5
2018-Jun-08 02:30N 55°55' W 001°28'611.7
2018-Jun-08 01:56N 55°59' W 001°37'511.6
2018-Jun-08 01:30N 56°02' W 001°44'611.2
2018-Jun-08 00:59N 56°05' W 001°53'611.5
2018-Jun-08 00:29N 56°06' W 002°03'611.6
2018-Jun-07 23:57N 56°06' W 002°14'511.8
2018-Jun-07 23:31N 56°07' W 002°23'611.8
2018-Jun-07 23:01N 56°08' W 002°34'611.3
2018-Jun-07 22:30N 56°07' W 002°44'510.5
2018-Jun-07 22:01N 56°06' W 002°53'714.1
2018-Jun-07 21:30N 56°03' W 003°05'4 7.9
2018-Jun-07 21:00N 56°03' W 003°12'714.2
2018-Jun-07 20:30N 56°00' W 003°23'713.2
2018-Jun-07 20:00N 56°02' W 003°35'4 7.2
2018-Jun-07 19:30N 56°02' W 003°41'0 0.3
2018-Jun-07 19:00N 56°02' W 003°41'0 0.0
2018-Jun-06 08:00N 56°02' W 003°41'0 0.1
2018-Jun-06 07:30N 56°02' W 003°41'0 0.5
2018-Jun-06 07:00N 56°02' W 003°41'0 0.5
2018-Jun-06 06:30N 56°02' W 003°41'5 5.4
2018-Jun-06 05:37N 56°02' W 003°32'311.1
2018-Jun-06 05:23N 56°01' W 003°28'4 9.3
2018-Jun-06 05:00N 56°01' W 003°21'510.3
2018-Jun-06 04:30N 56°02' W 003°13'611.7
2018-Jun-06 04:01N 56°06' W 003°04'3 5.3
2018-Jun-06 03:31N 56°08' W 003°02'0 0.1
2018-Jun-06 02:59N 56°08' W 003°02'0 0.0
2018-Jun-06 02:26N 56°08' W 003°02'0 0.0
2018-Jun-06 01:59N 56°08' W 003°02'0 0.0
2018-Jun-06 01:29N 56°08' W 003°02'0 0.0
2018-Jun-06 00:56N 56°08' W 003°02'0 0.0
2018-Jun-06 00:29N 56°08' W 003°02'0 0.0
2018-Jun-05 23:59N 56°08' W 003°02'0 0.0
2018-Jun-05 23:29N 56°08' W 003°02'0 0.1
2018-Jun-05 22:59N 56°08' W 003°02'0 0.0
2018-Jun-05 22:29N 56°08' W 003°02'0 0.0
2018-Jun-05 21:59N 56°08' W 003°02'0 0.0
2018-Jun-05 21:29N 56°08' W 003°02'0 0.1
2018-Jun-05 20:59N 56°08' W 003°02'0 0.0
2018-Jun-05 20:29N 56°08' W 003°02'0 0.0
2018-Jun-05 19:59N 56°08' W 003°02'0 0.0
2018-Jun-05 19:29N 56°08' W 003°02'0 0.0
2018-Jun-05 18:59N 56°08' W 003°02'0 0.0
2018-Jun-05 18:29N 56°08' W 003°02'0 0.0
2018-Jun-05 17:59N 56°08' W 003°02'0 0.0
2018-Jun-05 17:29N 56°08' W 003°02'0 0.0
2018-Jun-05 16:59N 56°08' W 003°02'0 0.0
2018-Jun-05 16:29N 56°08' W 003°02'0 0.0
2018-Jun-05 15:59N 56°08' W 003°02'0 0.0
2018-Jun-05 15:29N 56°08' W 003°02'0 0.0
2018-Jun-05 14:59N 56°08' W 003°02'0 0.0
2018-Jun-05 14:29N 56°08' W 003°02'0 0.0
2018-Jun-05 13:59N 56°08' W 003°02'0 0.0
2018-Jun-05 13:29N 56°08' W 003°02'0 0.0
2018-Jun-05 12:59N 56°08' W 003°02'0 0.0
2018-Jun-05 12:29N 56°08' W 003°02'0 0.0
2018-Jun-05 11:59N 56°08' W 003°02'0 0.1
2018-Jun-05 11:29N 56°08' W 003°02'0 0.2
2018-Jun-05 10:59N 56°08' W 003°02'0 0.1
2018-Jun-05 10:29N 56°08' W 003°02'0 0.0
2018-Jun-05 09:59N 56°08' W 003°02'0 0.0
2018-Jun-05 09:29N 56°08' W 003°02'0 0.1
2018-Jun-05 08:59N 56°08' W 003°02'0 0.1
2018-Jun-05 08:29N 56°08' W 003°02'0 0.1
2018-Jun-05 07:59N 56°08' W 003°02'0 0.1
2018-Jun-05 07:29N 56°08' W 003°02'0 0.0
2018-Jun-05 06:59N 56°08' W 003°02'0 0.0
2018-Jun-05 06:29N 56°08' W 003°02'0 0.0
2018-Jun-05 05:59N 56°08' W 003°02'0 0.0
2018-Jun-05 05:29N 56°08' W 003°02'0 0.0
2018-Jun-05 04:59N 56°08' W 003°02'0 0.0
2018-Jun-05 04:29N 56°08' W 003°02'0 0.0
2018-Jun-05 03:59N 56°08' W 003°02'0 0.0
2018-Jun-05 03:29N 56°08' W 003°02'0 0.0
2018-Jun-05 02:59N 56°08' W 003°02'0 0.0
2018-Jun-05 02:29N 56°08' W 003°02'0 0.0
2018-Jun-05 01:59N 56°08' W 003°02'0 0.0
2018-Jun-05 01:29N 56°08' W 003°02'0 0.1
2018-Jun-05 00:59N 56°08' W 003°02'0 0.0
2018-Jun-05 00:29N 56°08' W 003°02'0 0.0
2018-Jun-04 23:59N 56°08' W 003°02'0 0.0
2018-Jun-04 23:29N 56°08' W 003°02'0 0.1
2018-Jun-04 22:59N 56°08' W 003°02'0 0.0
2018-Jun-04 22:29N 56°08' W 003°02'0 0.0
2018-Jun-04 21:59N 56°08' W 003°02'0 0.2
2018-Jun-04 21:29N 56°08' W 003°02'0 0.1
2018-Jun-04 20:59N 56°08' W 003°02'0 0.0
2018-Jun-04 20:29N 56°08' W 003°02'0 0.1
2018-Jun-04 19:59N 56°08' W 003°02'0 0.1
2018-Jun-04 19:26N 56°08' W 003°02'0 0.1
2018-Jun-04 18:59N 56°08' W 003°02'0 0.0
2018-Jun-04 18:29N 56°08' W 003°02'0 0.1
2018-Jun-04 17:59N 56°08' W 003°02'0 0.0
2018-Jun-04 17:29N 56°08' W 003°02'0 0.0
2018-Jun-04 16:59N 56°08' W 003°02'0 0.0
2018-Jun-04 16:29N 56°08' W 003°02'0 0.0
2018-Jun-04 15:59N 56°08' W 003°02'0 0.0
2018-Jun-04 15:29N 56°08' W 003°02'0 0.0
2018-Jun-04 14:59N 56°08' W 003°02'0 0.0
2018-Jun-04 14:29N 56°08' W 003°02'0 0.0
2018-Jun-04 13:59N 56°08' W 003°02'0 0.0
2018-Jun-04 13:29N 56°08' W 003°02'0 0.0
2018-Jun-04 12:59N 56°08' W 003°02'0 0.0
2018-Jun-04 12:29N 56°08' W 003°02'0 0.0
2018-Jun-04 11:59N 56°08' W 003°02'0 0.0
2018-Jun-04 11:29N 56°08' W 003°02'0 0.0
2018-Jun-04 10:59N 56°08' W 003°02'0 0.0
2018-Jun-04 10:29N 56°08' W 003°02'0 0.2
2018-Jun-04 09:59N 56°08' W 003°02'0 0.3
2018-Jun-04 09:29N 56°08' W 003°02'0 0.0
2018-Jun-04 08:59N 56°08' W 003°02'0 0.1
2018-Jun-04 08:29N 56°08' W 003°02'0 0.1
2018-Jun-04 07:59N 56°08' W 003°02'0 0.1
2018-Jun-04 07:29N 56°08' W 003°02'0 0.2
2018-Jun-04 06:59N 56°08' W 003°02'0 0.1
2018-Jun-04 06:29N 56°08' W 003°02'0 0.1
2018-Jun-04 05:53N 56°08' W 003°02'0 0.0
2018-Jun-04 05:29N 56°08' W 003°02'0 0.0
2018-Jun-04 04:56N 56°08' W 003°02'0 0.0
2018-Jun-04 04:29N 56°08' W 003°02'0 0.0
2018-Jun-04 03:59N 56°08' W 003°02'0 0.0
2018-Jun-04 03:29N 56°08' W 003°02'0 0.0
2018-Jun-04 02:59N 56°08' W 003°02'0 0.0
2018-Jun-04 02:29N 56°08' W 003°02'0 0.0
2018-Jun-04 01:59N 56°08' W 003°02'0 0.0
2018-Jun-04 01:29N 56°08' W 003°02'0 0.0
2018-Jun-04 00:59N 56°08' W 003°02'0 0.0
2018-Jun-04 00:29N 56°08' W 003°02'0 0.0
2018-Jun-03 23:59N 56°08' W 003°02'0 0.0
2018-Jun-03 23:29N 56°08' W 003°02'0 0.2
2018-Jun-03 22:59N 56°08' W 003°02'0 0.1
2018-Jun-03 22:29N 56°08' W 003°02'0 0.1
2018-Jun-03 21:59N 56°08' W 003°02'0 0.1
2018-Jun-03 21:29N 56°08' W 003°02'0 0.1
2018-Jun-03 20:59N 56°08' W 003°02'0 0.1
2018-Jun-03 20:29N 56°08' W 003°02'0 0.1
2018-Jun-03 19:59N 56°08' W 003°02'0 0.0
2018-Jun-03 19:29N 56°08' W 003°02'0 0.1
2018-Jun-03 18:59N 56°08' W 003°02'0 0.1
2018-Jun-03 18:29N 56°08' W 003°02'0 0.1
2018-Jun-03 17:59N 56°08' W 003°02'0 0.0
2018-Jun-03 17:29N 56°08' W 003°02'0 0.0
2018-Jun-03 16:59N 56°08' W 003°02'0 0.0
2018-Jun-03 16:29N 56°08' W 003°02'0 0.0
2018-Jun-03 15:59N 56°08' W 003°02'0 0.0
2018-Jun-03 15:29N 56°08' W 003°02'0 0.0
2018-Jun-03 14:59N 56°08' W 003°02'0 0.0
2018-Jun-03 14:29N 56°08' W 003°02'0 0.0
2018-Jun-03 13:56N 56°08' W 003°02'0 0.0
2018-Jun-03 13:29N 56°08' W 003°02'0 0.0
2018-Jun-03 12:59N 56°08' W 003°02'0 0.0
2018-Jun-03 12:29N 56°08' W 003°02'0 0.1
2018-Jun-03 11:59N 56°08' W 003°02'0 0.1
2018-Jun-03 11:29N 56°08' W 003°02'0 0.1
2018-Jun-03 10:59N 56°08' W 003°02'0 0.1
2018-Jun-03 10:29N 56°08' W 003°02'0 0.1
2018-Jun-03 09:59N 56°08' W 003°02'0 0.0
2018-Jun-03 09:29N 56°08' W 003°02'0 0.0
2018-Jun-03 08:59N 56°08' W 003°02'0 0.0
2018-Jun-03 08:29N 56°08' W 003°02'0 0.0
2018-Jun-03 07:59N 56°08' W 003°02'0 0.0
2018-Jun-03 07:29N 56°08' W 003°02'0 0.0
2018-Jun-03 06:59N 56°08' W 003°02'0 0.1
2018-Jun-03 06:29N 56°08' W 003°02'0 0.2
2018-Jun-03 05:59N 56°08' W 003°02'0 0.1
2018-Jun-03 05:29N 56°08' W 003°02'0 0.0
2018-Jun-03 04:59N 56°08' W 003°02'0 0.0
2018-Jun-03 04:29N 56°08' W 003°02'0 0.1
2018-Jun-03 03:59N 56°08' W 003°02'0 0.0
2018-Jun-03 03:29N 56°08' W 003°02'0 0.0
2018-Jun-03 02:59N 56°08' W 003°02'0 0.0
2018-Jun-03 02:29N 56°08' W 003°02'0 0.0
2018-Jun-03 01:59N 56°08' W 003°02'0 0.0
2018-Jun-03 01:29N 56°08' W 003°02'0 0.0
2018-Jun-03 00:59N 56°08' W 003°02'0 0.0
2018-Jun-03 00:29N 56°08' W 003°02'0 0.0
2018-Jun-02 23:59N 56°08' W 003°02'0 0.1
2018-Jun-02 23:29N 56°08' W 003°02'0 0.1
2018-Jun-02 22:59N 56°08' W 003°02'0 0.0
2018-Jun-02 22:29N 56°08' W 003°02'0 0.1
2018-Jun-02 21:59N 56°08' W 003°02'0 0.1
2018-Jun-02 21:29N 56°08' W 003°02'0 0.0
2018-Jun-02 20:59N 56°08' W 003°02'0 0.0
2018-Jun-02 20:29N 56°08' W 003°02'0 0.0
2018-Jun-02 19:59N 56°08' W 003°02'0 0.0
2018-Jun-02 19:29N 56°08' W 003°02'0 0.1
2018-Jun-02 18:59N 56°08' W 003°02'0 0.2
2018-Jun-02 18:29N 56°08' W 003°02'0 0.2
2018-Jun-02 17:59N 56°08' W 003°02'0 0.0
2018-Jun-02 17:29N 56°08' W 003°02'0 0.0
2018-Jun-02 16:59N 56°08' W 003°02'0 0.0
2018-Jun-02 16:29N 56°08' W 003°02'0 0.0
2018-Jun-02 15:59N 56°08' W 003°02'0 0.0
2018-Jun-02 15:29N 56°08' W 003°02'0 0.0
2018-Jun-02 14:59N 56°08' W 003°02'0 0.0
2018-Jun-02 14:29N 56°08' W 003°02'0 0.0
2018-Jun-02 13:59N 56°08' W 003°02'0 0.0
2018-Jun-02 13:29N 56°08' W 003°02'0 0.0
2018-Jun-02 12:59N 56°08' W 003°02'0 0.0
2018-Jun-02 12:29N 56°08' W 003°02'0 0.0
2018-Jun-02 11:59N 56°08' W 003°02'0 0.1
2018-Jun-02 11:29N 56°08' W 003°02'0 0.1
2018-Jun-02 10:59N 56°08' W 003°02'0 0.0
2018-Jun-02 10:29N 56°08' W 003°02'0 0.0
2018-Jun-02 09:59N 56°08' W 003°02'0 0.0
2018-Jun-02 09:29N 56°08' W 003°02'0 0.0
2018-Jun-02 08:59N 56°08' W 003°02'0 0.0
2018-Jun-02 08:29N 56°08' W 003°02'0 0.0
2018-Jun-02 07:59N 56°08' W 003°02'0 0.0
2018-Jun-02 07:29N 56°08' W 003°02'0 0.0
2018-Jun-02 06:59N 56°08' W 003°02'0 0.1
2018-Jun-02 06:29N 56°08' W 003°02'0 0.1
2018-Jun-02 05:59N 56°08' W 003°02'0 0.2
2018-Jun-02 05:29N 56°08' W 003°02'0 0.1
2018-Jun-02 04:59N 56°08' W 003°02'0 0.0
2018-Jun-02 04:29N 56°08' W 003°02'0 0.0
2018-Jun-02 03:59N 56°08' W 003°02'0 0.0
2018-Jun-02 03:29N 56°08' W 003°02'0 0.0
2018-Jun-02 02:59N 56°08' W 003°02'0 0.0
2018-Jun-02 02:29N 56°08' W 003°02'0 0.0
2018-Jun-02 01:59N 56°08' W 003°02'0 0.0
2018-Jun-02 01:29N 56°08' W 003°02'0 0.0
2018-Jun-02 00:59N 56°08' W 003°02'0 0.0
2018-Jun-02 00:29N 56°08' W 003°02'0 0.0
2018-Jun-01 23:59N 56°08' W 003°02'0 0.1
2018-Jun-01 23:29N 56°08' W 003°02'0 0.1
2018-Jun-01 22:59N 56°08' W 003°02'0 0.1
2018-Jun-01 22:29N 56°08' W 003°02'0 0.0
2018-Jun-01 21:59N 56°08' W 003°02'0 0.1
2018-Jun-01 21:29N 56°08' W 003°02'0 0.0
2018-Jun-01 20:59N 56°08' W 003°02'0 0.0
2018-Jun-01 20:29N 56°08' W 003°02'0 0.0
2018-Jun-01 19:59N 56°08' W 003°02'0 0.0
2018-Jun-01 19:29N 56°08' W 003°02'0 0.0
2018-Jun-01 18:59N 56°08' W 003°02'0 0.0
2018-Jun-01 18:29N 56°08' W 003°02'0 0.1
2018-Jun-01 17:59N 56°08' W 003°02'0 0.1
2018-Jun-01 17:29N 56°08' W 003°02'0 0.2
2018-Jun-01 16:59N 56°08' W 003°02'0 0.1
2018-Jun-01 16:29N 56°08' W 003°02'0 0.0
2018-Jun-01 15:59N 56°08' W 003°02'0 0.0
2018-Jun-01 15:29N 56°08' W 003°02'0 0.0
2018-Jun-01 14:59N 56°08' W 003°02'0 0.0
2018-Jun-01 14:29N 56°08' W 003°02'0 0.1
2018-Jun-01 13:59N 56°08' W 003°02'0 0.0
2018-Jun-01 13:29N 56°08' W 003°02'0 0.0
2018-Jun-01 12:59N 56°08' W 003°02'0 0.0
2018-Jun-01 12:26N 56°08' W 003°02'0 0.0
2018-Jun-01 11:59N 56°08' W 003°02'0 0.0
2018-Jun-01 11:29N 56°08' W 003°02'0 0.1
2018-Jun-01 10:59N 56°08' W 003°02'0 0.2
2018-Jun-01 10:29N 56°08' W 003°02'0 0.1
2018-Jun-01 09:59N 56°08' W 003°02'0 0.0
2018-Jun-01 09:29N 56°08' W 003°02'0 0.0
2018-Jun-01 08:59N 56°08' W 003°02'0 0.0
2018-Jun-01 08:29N 56°08' W 003°02'0 0.0
2018-Jun-01 07:59N 56°08' W 003°02'0 0.0
2018-Jun-01 07:29N 56°08' W 003°02'0 0.0
2018-Jun-01 06:59N 56°08' W 003°02'0 0.0
2018-Jun-01 06:29N 56°08' W 003°02'0 0.0
2018-Jun-01 05:59N 56°08' W 003°02'0 0.1
2018-Jun-01 05:29N 56°08' W 003°02'0 0.1
2018-Jun-01 04:59N 56°08' W 003°02'0 0.1
2018-Jun-01 04:29N 56°08' W 003°02'0 0.1
2018-Jun-01 03:59N 56°08' W 003°02'0 0.0
2018-Jun-01 03:29N 56°08' W 003°02'0 0.0
2018-Jun-01 02:59N 56°08' W 003°02'0 0.0
2018-Jun-01 02:29N 56°08' W 003°02'0 0.0
2018-Jun-01 01:59N 56°08' W 003°02'0 0.0
2018-Jun-01 01:29N 56°08' W 003°02'0 0.0
2018-Jun-01 00:59N 56°08' W 003°02'0 0.0
2018-Jun-01 00:29N 56°08' W 003°02'0 0.0
2018-May-31 23:59N 56°08' W 003°02'0 0.0
2018-May-31 23:29N 56°08' W 003°02'0 0.0
2018-May-31 22:59N 56°08' W 003°02'0 0.0
2018-May-31 22:29N 56°08' W 003°02'0 0.1
2018-May-31 21:59N 56°08' W 003°02'0 0.2
2018-May-31 21:29N 56°08' W 003°02'0 0.1
2018-May-31 20:59N 56°08' W 003°02'0 0.0
2018-May-31 20:29N 56°08' W 003°02'0 0.0
2018-May-31 19:59N 56°08' W 003°02'0 0.0
2018-May-31 19:29N 56°08' W 003°02'0 0.0
2018-May-31 18:59N 56°08' W 003°02'0 0.3
2018-May-31 18:30N 56°08' W 003°02'2 4.7
2018-May-31 18:00N 56°08' W 002°58'611.5
2018-May-31 17:30N 56°08' W 002°47'612.4
2018-May-31 17:01N 56°08' W 002°36'611.6
2018-May-31 16:30N 56°10' W 002°27'612.6
2018-May-31 16:00N 56°15' W 002°20'1212.9
2018-May-31 15:04N 56°25' W 002°06'113.2
2018-May-31 14:59N 56°26' W 002°05'3314.9
2018-May-31 12:45N 56°55' W 001°36'514.9
2018-May-31 12:23N 57°00' W 001°32'814.6
2018-May-31 11:51N 57°07' W 001°26'614.8
2018-May-31 11:28N 57°12' W 001°23'  

Dump ship's entire track history